sensor_id;sensor_type;location;lat;lon;timestamp;pressure;altitude;pressure_sealevel;temperature;humidity
56600;BME280;51832;48.152;11.530;2022-12-05T00:01:44;95137.72;;;4.46;79.85
56600;BME280;51832;48.152;11.530;2022-12-05T00:06:45;95141.16;;;4.53;79.50
56600;BME280;51832;48.152;11.530;2022-12-05T00:11:45;95147.91;;;4.13;80.48
56600;BME280;51832;48.152;11.530;2022-12-05T00:16:46;95147.19;;;4.25;80.35
56600;BME280;51832;48.152;11.530;2022-12-05T00:21:46;95144.72;;;4.45;79.91
56600;BME280;51832;48.152;11.530;2022-12-05T00:26:47;95159.19;;;4.54;79.03
56600;BME280;51832;48.152;11.530;2022-12-05T00:31:47;95169.50;;;4.35;80.28
56600;BME280;51832;48.152;11.530;2022-12-05T00:36:47;95179.09;;;3.85;81.77
56600;BME280;51832;48.152;11.530;2022-12-05T00:41:48;95166.59;;;3.95;82.55
56600;BME280;51832;48.152;11.530;2022-12-05T00:46:48;95170.31;;;4.07;82.12
56600;BME280;51832;48.152;11.530;2022-12-05T00:51:48;95183.97;;;4.16;81.87
56600;BME280;51832;48.152;11.530;2022-12-05T00:56:49;95180.31;;;4.38;81.56
56600;BME280;51832;48.152;11.530;2022-12-05T01:01:51;95183.78;;;4.17;81.27
56600;BME280;51832;48.152;11.530;2022-12-05T01:06:56;95186.69;;;4.57;80.52
56600;BME280;51832;48.152;11.530;2022-12-05T01:11:57;95202.94;;;4.59;80.21
56600;BME280;51832;48.152;11.530;2022-12-05T01:16:57;95208.31;;;4.51;80.65
56600;BME280;51832;48.152;11.530;2022-12-05T01:21:58;95229.75;;;4.04;82.07
56600;BME280;51832;48.152;11.530;2022-12-05T01:26:59;95246.31;;;4.45;81.21
56600;BME280;51832;48.152;11.530;2022-12-05T01:32:00;95243.81;;;4.09;82.53
56600;BME280;51832;48.152;11.530;2022-12-05T01:37:00;95220.53;;;4.29;82.00
56600;BME280;51832;48.152;11.530;2022-12-05T01:42:04;95217.19;;;4.35;81.61
56600;BME280;51832;48.152;11.530;2022-12-05T01:47:04;95228.66;;;4.41;81.12
56600;BME280;51832;48.152;11.530;2022-12-05T01:52:20;95247.50;;;4.43;81.46
56600;BME280;51832;48.152;11.530;2022-12-05T01:57:24;95256.88;;;4.16;81.96
56600;BME280;51832;48.152;11.530;2022-12-05T02:02:26;95257.13;;;4.00;82.44
56600;BME280;51832;48.152;11.530;2022-12-05T02:07:27;95273.72;;;3.77;83.56
56600;BME280;51832;48.152;11.530;2022-12-05T02:12:27;95298.13;;;3.76;83.50
56600;BME280;51832;48.152;11.530;2022-12-05T02:33:20;95311.63;;;3.65;83.70
56600;BME280;51832;48.152;11.530;2022-12-05T02:43:42;95316.22;;;3.34;85.38
56600;BME280;51832;48.152;11.530;2022-12-05T02:48:45;95326.34;;;3.29;84.85
56600;BME280;51832;48.152;11.530;2022-12-05T02:53:49;95327.16;;;3.29;85.18
56600;BME280;51832;48.152;11.530;2022-12-05T02:58:53;95320.78;;;3.17;86.09
56600;BME280;51832;48.152;11.530;2022-12-05T03:03:53;95330.31;;;3.25;85.87
56600;BME280;51832;48.152;11.530;2022-12-05T03:09:04;95343.19;;;3.62;85.20
56600;BME280;51832;48.152;11.530;2022-12-05T03:14:12;95344.81;;;3.48;85.04
56600;BME280;51832;48.152;11.530;2022-12-05T03:19:19;95371.28;;;3.81;84.35
56600;BME280;51832;48.152;11.530;2022-12-05T03:24:23;95352.34;;;3.58;85.18
56600;BME280;51832;48.152;11.530;2022-12-05T03:29:30;95379.16;;;3.29;86.22
56600;BME280;51832;48.152;11.530;2022-12-05T03:35:00;95378.91;;;3.24;87.01
56600;BME280;51832;48.152;11.530;2022-12-05T03:40:12;95380.53;;;3.40;85.92
56600;BME280;51832;48.152;11.530;2022-12-05T03:45:16;95385.75;;;3.02;86.92
56600;BME280;51832;48.152;11.530;2022-12-05T03:50:26;95395.75;;;3.28;86.19
56600;BME280;51832;48.152;11.530;2022-12-05T03:55:29;95392.00;;;3.60;85.52
56600;BME280;51832;48.152;11.530;2022-12-05T04:00:36;95402.06;;;3.63;85.40
56600;BME280;51832;48.152;11.530;2022-12-05T04:05:45;95403.53;;;3.28;86.55
56600;BME280;51832;48.152;11.530;2022-12-05T04:10:49;95410.56;;;3.72;85.06
56600;BME280;51832;48.152;11.530;2022-12-05T04:15:56;95404.56;;;3.71;84.72
56600;BME280;51832;48.152;11.530;2022-12-05T04:21:17;95408.84;;;3.35;86.18
56600;BME280;51832;48.152;11.530;2022-12-05T04:26:45;95422.94;;;3.70;84.86
56600;BME280;51832;48.152;11.530;2022-12-05T04:31:51;95422.06;;;3.63;84.52
56600;BME280;51832;48.152;11.530;2022-12-05T04:36:58;95413.44;;;3.91;84.26
56600;BME280;51832;48.152;11.530;2022-12-05T04:42:22;95416.94;;;3.84;84.14
56600;BME280;51832;48.152;11.530;2022-12-05T04:47:29;95418.19;;;4.03;83.50
56600;BME280;51832;48.152;11.530;2022-12-05T04:52:31;95417.53;;;4.01;83.74
56600;BME280;51832;48.152;11.530;2022-12-05T04:57:39;95408.28;;;4.13;83.62
56600;BME280;51832;48.152;11.530;2022-12-05T05:02:46;95399.03;;;4.10;83.98
56600;BME280;51832;48.152;11.530;2022-12-05T05:07:52;95386.91;;;4.17;83.24
56600;BME280;51832;48.152;11.530;2022-12-05T05:12:53;95391.41;;;5.71;88.21
56600;BME280;51832;48.152;11.530;2022-12-05T05:17:53;95389.13;;;6.50;83.19
56600;BME280;51832;48.152;11.530;2022-12-05T05:22:55;95406.38;;;6.45;81.26
56600;BME280;51832;48.152;11.530;2022-12-05T05:27:56;95405.84;;;6.69;74.38
56600;BME280;51832;48.152;11.530;2022-12-05T05:32:58;95412.44;;;5.97;75.71
56600;BME280;51832;48.152;11.530;2022-12-05T05:37:58;95412.28;;;5.71;76.79
56600;BME280;51832;48.152;11.530;2022-12-05T05:42:59;95416.72;;;5.43;78.56
56600;BME280;51832;48.152;11.530;2022-12-05T05:47:59;95426.91;;;5.38;78.78
56600;BME280;51832;48.152;11.530;2022-12-05T05:53:00;95421.50;;;5.39;78.70
56600;BME280;51832;48.152;11.530;2022-12-05T05:58:00;95409.72;;;5.50;78.74
56600;BME280;51832;48.152;11.530;2022-12-05T06:03:00;95426.81;;;5.24;79.30
56600;BME280;51832;48.152;11.530;2022-12-05T06:08:01;95441.13;;;5.35;78.68
56600;BME280;51832;48.152;11.530;2022-12-05T06:13:02;95449.66;;;5.50;78.78
56600;BME280;51832;48.152;11.530;2022-12-05T06:18:02;95458.31;;;5.51;78.80
56600;BME280;51832;48.152;11.530;2022-12-05T06:23:02;95467.31;;;5.48;78.67
56600;BME280;51832;48.152;11.530;2022-12-05T06:28:03;95467.91;;;5.44;79.47
56600;BME280;51832;48.152;11.530;2022-12-05T06:33:03;95479.47;;;5.62;78.71
56600;BME280;51832;48.152;11.530;2022-12-05T06:38:05;95463.19;;;5.60;79.06
56600;BME280;51832;48.152;11.530;2022-12-05T06:43:06;95468.56;;;5.52;79.35
56600;BME280;51832;48.152;11.530;2022-12-05T06:48:07;95468.00;;;5.57;78.59
56600;BME280;51832;48.152;11.530;2022-12-05T06:53:07;95477.38;;;5.79;78.38
56600;BME280;51832;48.152;11.530;2022-12-05T06:58:07;95496.34;;;5.60;78.46
56600;BME280;51832;48.152;11.530;2022-12-05T07:03:09;95495.56;;;5.66;78.95
56600;BME280;51832;48.152;11.530;2022-12-05T07:08:10;95503.16;;;5.89;77.52
56600;BME280;51832;48.152;11.530;2022-12-05T07:13:10;95501.88;;;6.06;77.04
56600;BME280;51832;48.152;11.530;2022-12-05T07:18:10;95504.31;;;6.07;76.77
56600;BME280;51832;48.152;11.530;2022-12-05T07:23:11;95504.56;;;6.19;76.40
56600;BME280;51832;48.152;11.530;2022-12-05T07:28:11;95509.66;;;6.27;75.92
56600;BME280;51832;48.152;11.530;2022-12-05T07:33:12;95511.47;;;6.27;75.93
56600;BME280;51832;48.152;11.530;2022-12-05T07:38:12;95507.41;;;6.24;75.60
56600;BME280;51832;48.152;11.530;2022-12-05T07:43:12;95518.22;;;6.15;76.68
56600;BME280;51832;48.152;11.530;2022-12-05T07:48:13;95530.16;;;6.30;76.36
56600;BME280;51832;48.152;11.530;2022-12-05T07:53:13;95531.81;;;6.38;75.76
56600;BME280;51832;48.152;11.530;2022-12-05T07:58:14;95545.25;;;6.35;75.86
56600;BME280;51832;48.152;11.530;2022-12-05T08:03:14;95537.47;;;6.41;76.24
56600;BME280;51832;48.152;11.530;2022-12-05T08:08:14;95539.16;;;6.56;74.71
56600;BME280;51832;48.152;11.530;2022-12-05T08:13:15;95536.13;;;6.59;74.72
56600;BME280;51832;48.152;11.530;2022-12-05T08:18:15;95550.44;;;6.63;74.43
56600;BME280;51832;48.152;11.530;2022-12-05T08:23:15;95545.00;;;6.71;74.27
56600;BME280;51832;48.152;11.530;2022-12-05T08:28:16;95558.50;;;6.68;74.23
56600;BME280;51832;48.152;11.530;2022-12-05T08:33:16;95569.22;;;6.80;74.32
56600;BME280;51832;48.152;11.530;2022-12-05T08:38:17;95572.63;;;6.80;73.86
56600;BME280;51832;48.152;11.530;2022-12-05T08:43:17;95580.34;;;7.01;74.12
56600;BME280;51832;48.152;11.530;2022-12-05T08:48:18;95574.25;;;6.88;73.81
56600;BME280;51832;48.152;11.530;2022-12-05T08:53:19;95580.72;;;6.51;74.86
56600;BME280;51832;48.152;11.530;2022-12-05T08:58:19;95585.47;;;6.68;74.06
56600;BME280;51832;48.152;11.530;2022-12-05T09:03:19;95593.56;;;6.87;73.60
56600;BME280;51832;48.152;11.530;2022-12-05T09:08:20;95589.28;;;6.72;74.16
56600;BME280;51832;48.152;11.530;2022-12-05T09:13:20;95588.34;;;6.87;72.94
56600;BME280;51832;48.152;11.530;2022-12-05T09:18:21;95594.03;;;6.97;73.55
56600;BME280;51832;48.152;11.530;2022-12-05T09:23:21;95603.88;;;6.95;74.25
56600;BME280;51832;48.152;11.530;2022-12-05T09:28:21;95604.09;;;7.00;74.28
56600;BME280;51832;48.152;11.530;2022-12-05T09:33:22;95604.31;;;7.11;73.62
56600;BME280;51832;48.152;11.530;2022-12-05T09:38:23;95612.34;;;6.97;74.83
56600;BME280;51832;48.152;11.530;2022-12-05T09:48:37;95614.34;;;7.01;73.78
56600;BME280;51832;48.152;11.530;2022-12-05T09:53:41;95622.06;;;7.09;74.46
56600;BME280;51832;48.152;11.530;2022-12-05T10:04:01;95626.09;;;7.19;73.88
56600;BME280;51832;48.152;11.530;2022-12-05T10:09:07;95631.91;;;7.07;74.46
56600;BME280;51832;48.152;11.530;2022-12-05T10:19:24;95611.03;;;7.27;74.42
56600;BME280;51832;48.152;11.530;2022-12-05T10:24:35;95606.81;;;7.39;74.34
56600;BME280;51832;48.152;11.530;2022-12-05T10:29:58;95607.25;;;7.36;73.94
56600;BME280;51832;48.152;11.530;2022-12-05T10:35:13;95605.97;;;7.26;74.34
56600;BME280;51832;48.152;11.530;2022-12-05T10:40:15;95618.09;;;7.33;75.15
56600;BME280;51832;48.152;11.530;2022-12-05T10:45:19;95608.81;;;7.31;74.80
56600;BME280;51832;48.152;11.530;2022-12-05T10:50:34;95610.47;;;7.45;74.15
56600;BME280;51832;48.152;11.530;2022-12-05T10:55:42;95601.22;;;7.56;73.70
56600;BME280;51832;48.152;11.530;2022-12-05T11:00:48;95590.94;;;7.54;73.77
56600;BME280;51832;48.152;11.530;2022-12-05T11:05:59;95599.84;;;7.73;73.73
56600;BME280;51832;48.152;11.530;2022-12-05T11:11:18;95594.78;;;7.52;74.02
56600;BME280;51832;48.152;11.530;2022-12-05T11:16:27;95592.38;;;7.63;73.98
56600;BME280;51832;48.152;11.530;2022-12-05T11:21:41;95591.94;;;7.46;73.85
56600;BME280;51832;48.152;11.530;2022-12-05T11:26:41;95589.75;;;7.50;74.05
56600;BME280;51832;48.152;11.530;2022-12-05T11:31:50;95585.66;;;7.21;75.27
56600;BME280;51832;48.152;11.530;2022-12-05T11:36:56;95586.72;;;7.66;73.70
56600;BME280;51832;48.152;11.530;2022-12-05T12:15:12;95591.78;;;7.61;74.82
56600;BME280;51832;48.152;11.530;2022-12-05T12:25:44;95593.28;;;7.09;76.72
56600;BME280;51832;48.152;11.530;2022-12-05T12:31:05;95588.16;;;6.88;77.27
56600;BME280;51832;48.152;11.530;2022-12-05T12:47:02;95574.41;;;7.34;75.84
56600;BME280;51832;48.152;11.530;2022-12-05T12:52:15;95563.69;;;7.16;75.44
56600;BME280;51832;48.152;11.530;2022-12-05T13:02:42;95573.91;;;7.04;75.90
56600;BME280;51832;48.152;11.530;2022-12-05T13:07:49;95566.03;;;6.97;75.38
56600;BME280;51832;48.152;11.530;2022-12-05T13:12:52;95575.09;;;6.95;75.55
56600;BME280;51832;48.152;11.530;2022-12-05T13:17:54;95576.34;;;7.05;75.40
56600;BME280;51832;48.152;11.530;2022-12-05T13:22:55;95580.31;;;6.88;75.38
56600;BME280;51832;48.152;11.530;2022-12-05T13:27:58;95565.91;;;6.64;75.76
56600;BME280;51832;48.152;11.530;2022-12-05T13:33:07;95558.94;;;6.78;75.29
56600;BME280;51832;48.152;11.530;2022-12-05T13:38:33;95573.31;;;6.54;75.52
56600;BME280;51832;48.152;11.530;2022-12-05T13:43:54;95588.75;;;6.49;75.69
56600;BME280;51832;48.152;11.530;2022-12-05T13:49:02;95574.06;;;6.41;75.31
56600;BME280;51832;48.152;11.530;2022-12-05T13:54:25;95577.06;;;6.45;75.74
56600;BME280;51832;48.152;11.530;2022-12-05T14:11:05;95587.44;;;6.32;76.79
56600;BME280;51832;48.152;11.530;2022-12-05T14:15:44;95580.22;;;6.34;77.01
56600;BME280;51832;48.152;11.530;2022-12-05T14:42:43;95608.06;;;6.48;76.86
56600;BME280;51832;48.152;11.530;2022-12-05T14:47:52;95611.75;;;6.60;76.90
56600;BME280;51832;48.152;11.530;2022-12-05T15:04:19;95591.72;;;6.39;78.35
56600;BME280;51832;48.152;11.530;2022-12-05T15:20:07;95584.88;;;6.38;79.56
56600;BME280;51832;48.152;11.530;2022-12-05T15:25:24;95586.09;;;6.42;79.31
56600;BME280;51832;48.152;11.530;2022-12-05T15:30:26;95588.13;;;6.40;79.89
56600;BME280;51832;48.152;11.530;2022-12-05T15:35:30;95594.91;;;6.35;80.36
56600;BME280;51832;48.152;11.530;2022-12-05T15:40:34;95603.22;;;6.17;80.79
56600;BME280;51832;48.152;11.530;2022-12-05T15:45:36;95609.13;;;5.98;81.98
56600;BME280;51832;48.152;11.530;2022-12-05T15:50:42;95604.94;;;6.31;80.19
56600;BME280;51832;48.152;11.530;2022-12-05T16:00:56;95625.28;;;6.36;80.91
56600;BME280;51832;48.152;11.530;2022-12-05T16:06:00;95624.63;;;6.27;81.23
56600;BME280;51832;48.152;11.530;2022-12-05T16:11:08;95624.00;;;6.53;80.64
56600;BME280;51832;48.152;11.530;2022-12-05T16:16:15;95617.06;;;6.39;80.92
56600;BME280;51832;48.152;11.530;2022-12-05T16:21:34;95626.56;;;6.19;80.72
56600;BME280;51832;48.152;11.530;2022-12-05T16:26:37;95622.31;;;6.18;80.63
56600;BME280;51832;48.152;11.530;2022-12-05T16:31:39;95629.84;;;6.55;79.35
56600;BME280;51832;48.152;11.530;2022-12-05T16:36:48;95629.31;;;6.38;79.40
56600;BME280;51832;48.152;11.530;2022-12-05T16:41:49;95623.38;;;6.51;78.56
56600;BME280;51832;48.152;11.530;2022-12-05T16:46:50;95624.00;;;6.53;77.75
56600;BME280;51832;48.152;11.530;2022-12-05T16:51:54;95626.53;;;6.47;78.34
56600;BME280;51832;48.152;11.530;2022-12-05T16:56:58;95628.41;;;6.53;77.85
56600;BME280;51832;48.152;11.530;2022-12-05T17:02:00;95628.41;;;6.53;77.18
56600;BME280;51832;48.152;11.530;2022-12-05T17:07:01;95638.56;;;6.69;77.13
56600;BME280;51832;48.152;11.530;2022-12-05T17:12:06;95649.16;;;6.61;76.91
56600;BME280;51832;48.152;11.530;2022-12-05T17:17:12;95656.53;;;6.85;76.01
56600;BME280;51832;48.152;11.530;2022-12-05T17:22:14;95656.28;;;6.73;76.63
56600;BME280;51832;48.152;11.530;2022-12-05T17:27:16;95651.94;;;6.53;77.61
56600;BME280;51832;48.152;11.530;2022-12-05T17:32:16;95662.31;;;6.46;78.24
56600;BME280;51832;48.152;11.530;2022-12-05T17:37:16;95656.81;;;6.34;77.82
56600;BME280;51832;48.152;11.530;2022-12-05T17:42:17;95652.31;;;6.50;78.04
56600;BME280;51832;48.152;11.530;2022-12-05T17:47:18;95644.00;;;6.39;77.10
56600;BME280;51832;48.152;11.530;2022-12-05T17:52:18;95651.59;;;6.62;76.56
56600;BME280;51832;48.152;11.530;2022-12-05T17:57:19;95667.75;;;6.45;77.95
56600;BME280;51832;48.152;11.530;2022-12-05T18:02:19;95663.09;;;6.40;78.00
56600;BME280;51832;48.152;11.530;2022-12-05T18:07:20;95669.16;;;6.19;78.09
56600;BME280;51832;48.152;11.530;2022-12-05T18:12:21;95669.59;;;6.23;77.88
56600;BME280;51832;48.152;11.530;2022-12-05T18:17:21;95678.63;;;6.20;78.57
56600;BME280;51832;48.152;11.530;2022-12-05T18:22:25;95665.59;;;5.99;79.13
56600;BME280;51832;48.152;11.530;2022-12-05T18:27:26;95651.13;;;6.24;77.44
56600;BME280;51832;48.152;11.530;2022-12-05T18:32:26;95647.41;;;6.12;77.51
56600;BME280;51832;48.152;11.530;2022-12-05T18:37:26;95662.47;;;6.10;78.14
56600;BME280;51832;48.152;11.530;2022-12-05T18:42:27;95649.22;;;6.12;77.83
56600;BME280;51832;48.152;11.530;2022-12-05T18:47:27;95652.75;;;5.83;78.76
56600;BME280;51832;48.152;11.530;2022-12-05T18:52:28;95645.03;;;5.75;79.09
56600;BME280;51832;48.152;11.530;2022-12-05T18:57:28;95655.19;;;5.84;78.67
56600;BME280;51832;48.152;11.530;2022-12-05T19:02:29;95650.06;;;5.76;79.26
56600;BME280;51832;48.152;11.530;2022-12-05T19:07:30;95660.59;;;5.83;79.55
56600;BME280;51832;48.152;11.530;2022-12-05T19:12:30;95669.97;;;5.56;80.32
56600;BME280;51832;48.152;11.530;2022-12-05T19:17:31;95676.34;;;5.32;80.19
56600;BME280;51832;48.152;11.530;2022-12-05T19:22:31;95681.09;;;5.28;80.49
56600;BME280;51832;48.152;11.530;2022-12-05T19:27:31;95677.31;;;5.31;79.61
56600;BME280;51832;48.152;11.530;2022-12-05T19:32:32;95673.25;;;5.43;79.31
56600;BME280;51832;48.152;11.530;2022-12-05T19:37:32;95671.59;;;5.57;78.26
56600;BME280;51832;48.152;11.530;2022-12-05T19:42:33;95663.31;;;5.17;79.46
56600;BME280;51832;48.152;11.530;2022-12-05T19:47:33;95673.75;;;5.17;80.06
56600;BME280;51832;48.152;11.530;2022-12-05T19:52:34;95662.84;;;5.50;78.15
56600;BME280;51832;48.152;11.530;2022-12-05T19:57:35;95673.66;;;5.47;78.91
56600;BME280;51832;48.152;11.530;2022-12-05T20:02:36;95663.84;;;5.49;78.38
56600;BME280;51832;48.152;11.530;2022-12-05T20:07:36;95661.09;;;5.35;79.09
56600;BME280;51832;48.152;11.530;2022-12-05T20:12:36;95657.81;;;5.27;80.62
56600;BME280;51832;48.152;11.530;2022-12-05T20:17:37;95645.13;;;5.60;78.65
56600;BME280;51832;48.152;11.530;2022-12-05T20:22:37;95635.47;;;5.39;78.96
56600;BME280;51832;48.152;11.530;2022-12-05T20:27:38;95645.03;;;5.53;78.26
56600;BME280;51832;48.152;11.530;2022-12-05T20:32:45;95628.66;;;5.59;78.17
56600;BME280;51832;48.152;11.530;2022-12-05T20:37:45;95633.25;;;5.21;79.48
56600;BME280;51832;48.152;11.530;2022-12-05T20:42:46;95646.69;;;5.40;78.26
56600;BME280;51832;48.152;11.530;2022-12-05T20:47:46;95636.25;;;5.40;79.04
56600;BME280;51832;48.152;11.530;2022-12-05T20:52:47;95638.38;;;5.51;78.44
56600;BME280;51832;48.152;11.530;2022-12-05T20:57:47;95636.75;;;5.28;78.32
56600;BME280;51832;48.152;11.530;2022-12-05T21:02:48;95635.28;;;5.62;77.87
56600;BME280;51832;48.152;11.530;2022-12-05T21:07:51;95616.00;;;5.42;78.12
56600;BME280;51832;48.152;11.530;2022-12-05T21:12:52;95633.56;;;5.33;78.96
56600;BME280;51832;48.152;11.530;2022-12-05T21:17:55;95630.88;;;5.41;78.60
56600;BME280;51832;48.152;11.530;2022-12-05T21:22:56;95640.81;;;5.31;79.09
56600;BME280;51832;48.152;11.530;2022-12-05T21:27:57;95624.56;;;5.35;78.49
56600;BME280;51832;48.152;11.530;2022-12-05T21:32:57;95622.75;;;5.15;79.30
56600;BME280;51832;48.152;11.530;2022-12-05T21:37:59;95627.00;;;5.37;79.08
56600;BME280;51832;48.152;11.530;2022-12-05T21:42:59;95614.88;;;5.29;78.78
56600;BME280;51832;48.152;11.530;2022-12-05T21:48:00;95612.66;;;5.48;78.07
56600;BME280;51832;48.152;11.530;2022-12-05T21:53:00;95630.94;;;5.69;77.51
56600;BME280;51832;48.152;11.530;2022-12-05T21:58:01;95622.22;;;5.41;77.74
56600;BME280;51832;48.152;11.530;2022-12-05T22:03:01;95646.97;;;5.66;77.08
56600;BME280;51832;48.152;11.530;2022-12-05T22:08:02;95650.06;;;5.76;76.85
56600;BME280;51832;48.152;11.530;2022-12-05T22:13:03;95614.56;;;5.60;76.39
56600;BME280;51832;48.152;11.530;2022-12-05T22:18:04;95641.63;;;5.53;77.32
56600;BME280;51832;48.152;11.530;2022-12-05T22:23:04;95633.22;;;5.79;76.83
56600;BME280;51832;48.152;11.530;2022-12-05T22:28:05;95652.34;;;6.00;76.47
56600;BME280;51832;48.152;11.530;2022-12-05T22:33:05;95641.47;;;5.97;75.34
56600;BME280;51832;48.152;11.530;2022-12-05T22:38:06;95643.75;;;6.06;75.64
56600;BME280;51832;48.152;11.530;2022-12-05T22:43:06;95621.50;;;5.89;75.63
56600;BME280;51832;48.152;11.530;2022-12-05T22:48:07;95625.78;;;5.97;76.02
56600;BME280;51832;48.152;11.530;2022-12-05T22:53:07;95655.47;;;6.17;75.77
56600;BME280;51832;48.152;11.530;2022-12-05T22:58:08;95631.81;;;5.97;75.82
56600;BME280;51832;48.152;11.530;2022-12-05T23:03:09;95644.81;;;5.91;76.54
56600;BME280;51832;48.152;11.530;2022-12-05T23:08:10;95632.56;;;6.13;75.88
56600;BME280;51832;48.152;11.530;2022-12-05T23:13:11;95643.84;;;6.20;75.55
56600;BME280;51832;48.152;11.530;2022-12-05T23:18:11;95649.31;;;6.25;74.91
56600;BME280;51832;48.152;11.530;2022-12-05T23:23:13;95649.97;;;6.33;75.28
56600;BME280;51832;48.152;11.530;2022-12-05T23:28:14;95641.84;;;6.22;75.68
56600;BME280;51832;48.152;11.530;2022-12-05T23:33:14;95637.34;;;6.09;76.11
56600;BME280;51832;48.152;11.530;2022-12-05T23:38:14;95616.78;;;5.99;76.03
56600;BME280;51832;48.152;11.530;2022-12-05T23:43:15;95629.06;;;6.05;76.23
56600;BME280;51832;48.152;11.530;2022-12-05T23:48:15;95630.56;;;5.93;75.92
56600;BME280;51832;48.152;11.530;2022-12-05T23:53:15;95633.03;;;6.01;76.16
56600;BME280;51832;48.152;11.530;2022-12-05T23:58:16;95620.31;;;5.92;75.88
